createdAt,value
2018-03-16T00:01:29.178Z,10.40
2018-03-16T00:03:57.451Z,10.30
2018-03-16T00:08:55.242Z,10.30
2018-03-16T00:11:24.275Z,10.30
2018-03-16T00:13:52.598Z,10.40
2018-03-16T00:16:20.868Z,10.40
2018-03-16T00:18:49.903Z,10.40
2018-03-16T00:21:18.593Z,10.30
2018-03-16T00:23:47.626Z,10.30
2018-03-16T00:26:15.907Z,10.30
2018-03-16T00:28:44.978Z,10.30
2018-03-16T00:31:13.242Z,10.30
2018-03-16T00:33:41.510Z,10.20
2018-03-16T00:36:10.583Z,10.20
2018-03-16T00:38:39.618Z,10.20
2018-03-16T00:41:07.891Z,10.20
2018-03-16T00:43:36.187Z,10.20
2018-03-16T00:46:05.970Z,10.20
2018-03-16T00:48:34.239Z,10.20
2018-03-16T00:51:02.568Z,10.20
2018-03-16T00:53:30.845Z,10.10
2018-03-16T00:55:59.119Z,10.20
2018-03-16T00:58:28.559Z,10.20
2018-03-16T01:00:57.594Z,10.10
2018-03-16T01:03:26.630Z,10.20
2018-03-16T01:05:54.927Z,10.20
2018-03-16T01:08:23.214Z,10.20
2018-03-16T01:10:51.482Z,10.20
2018-03-16T01:13:19.774Z,10.20
2018-03-16T01:15:48.083Z,10.20
2018-03-16T01:18:16.354Z,10.10
2018-03-16T01:20:47.514Z,10.20
2018-03-16T01:23:15.790Z,10.10
2018-03-16T01:25:44.061Z,10.10
2018-03-16T01:28:12.764Z,10.20
2018-03-16T01:30:42.538Z,10.10
2018-03-16T01:33:10.815Z,10.10
2018-03-16T01:35:39.983Z,10.10
2018-03-16T01:38:08.255Z,10.10
2018-03-16T01:40:37.289Z,10.10
2018-03-16T01:43:05.918Z,10.10
2018-03-16T01:45:34.955Z,10.00
2018-03-16T01:48:03.218Z,10.00
2018-03-16T01:50:31.518Z,10.00
2018-03-16T01:53:11.502Z,10.10
2018-03-16T01:55:39.806Z,10.10
2018-03-16T01:58:08.082Z,10.10
2018-03-16T02:00:37.114Z,10.00
2018-03-16T02:03:05.442Z,10.00
2018-03-16T02:05:33.709Z,10.00
2018-03-16T02:08:02.746Z,10.10
2018-03-16T02:10:31.666Z,10.10
2018-03-16T02:13:00.783Z,10.00
2018-03-16T02:15:30.087Z,10.00
2018-03-16T02:17:59.158Z,10.00
2018-03-16T02:20:28.189Z,10.00
2018-03-16T02:22:59.134Z,10.10
2018-03-16T02:25:27.402Z,10.00
2018-03-16T02:27:56.462Z,10.00
2018-03-16T02:30:24.759Z,10.00
2018-03-16T02:32:53.030Z,10.00
2018-03-16T02:37:51.814Z,10.00
2018-03-16T02:40:20.087Z,10.00
2018-03-16T02:42:49.116Z,10.00
2018-03-16T02:45:17.415Z,10.00
2018-03-16T02:47:45.682Z,10.00
2018-03-16T02:50:13.948Z,10.00
2018-03-16T02:52:42.646Z,9.90
2018-03-16T02:55:11.684Z,10.00
2018-03-16T02:57:39.950Z,10.00
2018-03-16T03:00:08.247Z,9.90
2018-03-16T03:02:37.307Z,10.00
2018-03-16T03:05:06.711Z,10.00
2018-03-16T03:07:35.318Z,10.00
2018-03-16T03:10:03.574Z,9.90
2018-03-16T03:12:32.252Z,10.00
2018-03-16T03:15:00.549Z,10.00
2018-03-16T03:17:28.809Z,9.90
2018-03-16T03:19:57.843Z,9.90
2018-03-16T03:22:26.922Z,9.90
2018-03-16T03:24:55.187Z,9.90
2018-03-16T03:27:23.447Z,9.90
2018-03-16T03:29:52.514Z,9.90
2018-03-16T03:32:21.915Z,9.90
2018-03-16T03:34:50.187Z,9.90
2018-03-16T03:37:18.494Z,9.90
2018-03-16T03:39:46.751Z,9.90
2018-03-16T03:42:15.019Z,9.90
2018-03-16T03:44:44.057Z,9.80
2018-03-16T03:47:12.326Z,9.80
2018-03-16T03:49:42.102Z,9.80
2018-03-16T03:52:10.421Z,9.90
2018-03-16T03:54:38.682Z,9.90
2018-03-16T03:57:07.719Z,9.90
2018-03-16T03:59:36.394Z,9.90
2018-03-16T04:02:05.058Z,9.90
2018-03-16T04:04:33.342Z,9.90
2018-03-16T04:07:01.610Z,9.90
2018-03-16T04:09:31.046Z,9.90
2018-03-16T04:12:00.078Z,9.90
2018-03-16T04:14:28.347Z,9.90
2018-03-16T04:16:58.142Z,9.80
2018-03-16T04:19:26.403Z,9.90
2018-03-16T04:21:55.459Z,9.90
2018-03-16T04:24:23.742Z,9.90
2018-03-16T04:26:52.002Z,9.90
2018-03-16T04:29:21.803Z,9.90
2018-03-16T04:31:50.085Z,9.90
2018-03-16T04:34:18.362Z,9.90
2018-03-16T04:36:46.654Z,9.90
2018-03-16T04:39:14.918Z,9.90
2018-03-16T04:41:43.173Z,9.90
2018-03-16T04:44:12.614Z,9.90
2018-03-16T04:46:41.638Z,9.90
2018-03-16T04:49:09.906Z,10.00
2018-03-16T04:51:39.723Z,10.00
2018-03-16T04:54:07.990Z,10.00
2018-03-16T04:56:36.251Z,9.90
2018-03-16T04:59:04.550Z,9.90
2018-03-16T05:01:33.215Z,9.90
2018-03-16T05:04:01.479Z,9.90
2018-03-16T05:06:30.535Z,9.90
2018-03-16T05:08:58.799Z,9.90
2018-03-16T05:11:27.835Z,9.90
2018-03-16T05:13:56.895Z,10.00
2018-03-16T05:16:25.931Z,10.00
2018-03-16T05:18:54.199Z,9.90
2018-03-16T05:21:23.271Z,9.90
2018-03-16T05:23:52.306Z,9.90
2018-03-16T05:26:20.576Z,9.90
2018-03-16T05:28:48.890Z,9.90
2018-03-16T05:31:17.155Z,9.90
2018-03-16T05:33:46.672Z,9.90
2018-03-16T05:36:14.967Z,9.90
2018-03-16T05:38:43.229Z,9.90
2018-03-16T05:41:11.492Z,9.90
2018-03-16T05:43:39.792Z,9.90
2018-03-16T05:46:08.050Z,9.90
2018-03-16T05:51:05.871Z,9.90
2018-03-16T05:53:34.902Z,10.00
2018-03-16T05:56:03.562Z,10.00
2018-03-16T05:58:31.870Z,10.00
2018-03-16T06:01:00.135Z,10.00
2018-03-16T06:03:28.407Z,10.00
2018-03-16T06:05:58.250Z,10.00
2018-03-16T06:08:26.507Z,10.00
2018-03-16T06:10:54.776Z,10.00
2018-03-16T06:13:23.078Z,10.00
2018-03-16T06:15:51.346Z,10.00
2018-03-16T06:18:19.619Z,10.00
2018-03-16T06:20:47.928Z,10.00
2018-03-16T06:23:16.202Z,10.00
2018-03-16T06:25:45.243Z,10.00
2018-03-16T06:28:13.559Z,10.00
2018-03-16T06:30:41.831Z,10.00
2018-03-16T06:33:10.099Z,10.00
2018-03-16T06:35:38.563Z,10.00
2018-03-16T06:38:06.829Z,10.00
2018-03-16T06:40:35.863Z,10.00
2018-03-16T06:43:04.187Z,10.00
2018-03-16T06:45:32.457Z,10.00
2018-03-16T06:48:00.726Z,10.00
2018-03-16T06:50:30.539Z,9.90
2018-03-16T06:52:58.825Z,9.90
2018-03-16T06:55:27.486Z,9.90
2018-03-16T06:57:56.934Z,9.90
2018-03-16T07:00:25.198Z,9.90
2018-03-16T07:02:54.590Z,9.90
2018-03-16T07:05:22.890Z,9.90
2018-03-16T07:07:51.167Z,10.00
2018-03-16T07:10:19.440Z,10.00
2018-03-16T07:12:48.698Z,10.00
2018-03-16T07:15:29.974Z,10.00
2018-03-16T07:20:28.550Z,10.00
2018-03-16T07:22:56.827Z,10.10
2018-03-16T07:25:25.895Z,10.10
2018-03-16T07:27:54.167Z,10.10
2018-03-16T07:30:22.434Z,10.10
2018-03-16T07:32:52.264Z,10.10
2018-03-16T07:35:20.510Z,10.20
2018-03-16T07:37:48.778Z,10.30
2018-03-16T07:40:17.490Z,10.30
2018-03-16T07:42:46.535Z,10.40
2018-03-16T07:45:14.796Z,10.40
2018-03-16T07:47:43.099Z,10.40
2018-03-16T07:50:11.372Z,10.50
2018-03-16T07:52:42.574Z,10.50
2018-03-16T07:55:11.291Z,10.50
2018-03-16T07:57:39.555Z,10.50
2018-03-16T08:00:07.826Z,10.50
2018-03-16T08:02:36.135Z,10.60
2018-03-16T08:05:04.406Z,10.60
2018-03-16T08:07:33.814Z,10.50
2018-03-16T08:10:02.115Z,10.50
2018-03-16T08:12:30.786Z,10.40
2018-03-16T08:14:59.468Z,10.30
2018-03-16T08:17:28.173Z,10.30
2018-03-16T08:19:57.205Z,10.20
2018-03-16T08:22:26.236Z,10.30
2018-03-16T08:24:54.535Z,10.30
2018-03-16T08:27:22.809Z,10.30
2018-03-16T08:29:51.075Z,10.30
2018-03-16T08:32:19.526Z,10.30
2018-03-16T08:34:48.934Z,10.30
2018-03-16T08:37:17.207Z,10.40
2018-03-16T08:39:46.862Z,10.40
2018-03-16T08:42:15.139Z,10.40
2018-03-16T08:44:43.403Z,10.40
2018-03-16T08:47:12.479Z,10.40
2018-03-16T08:49:41.509Z,10.40
2018-03-16T08:52:09.775Z,10.40
2018-03-16T08:54:38.081Z,10.30
2018-03-16T08:57:06.351Z,10.30
2018-03-16T08:59:36.129Z,10.20
2018-03-16T09:02:04.443Z,10.10
2018-03-16T09:04:33.110Z,10.10
2018-03-16T09:07:01.378Z,10.00
2018-03-16T09:09:31.389Z,10.00
2018-03-16T09:11:59.647Z,9.90
2018-03-16T09:14:28.684Z,9.90
2018-03-16T09:16:56.979Z,9.90
2018-03-16T09:19:25.242Z,9.90
2018-03-16T09:21:53.502Z,9.90
2018-03-16T09:24:21.807Z,9.90
2018-03-16T09:26:51.574Z,9.80
2018-03-16T09:29:19.835Z,9.80
2018-03-16T09:31:48.134Z,9.80
2018-03-16T09:34:16.403Z,9.80
2018-03-16T09:36:45.433Z,9.80
2018-03-16T09:39:14.907Z,9.80
2018-03-16T09:41:43.931Z,9.80
2018-03-16T09:44:12.193Z,9.70
2018-03-16T09:46:40.501Z,9.70
2018-03-16T09:49:08.758Z,9.70
2018-03-16T09:51:37.017Z,9.70
2018-03-16T09:54:05.318Z,9.70
2018-03-16T09:56:33.591Z,9.70
2018-03-16T09:59:02.618Z,9.70
2018-03-16T10:01:31.683Z,9.70
2018-03-16T10:04:00.706Z,9.60
2018-03-16T10:06:28.971Z,9.60
2018-03-16T10:08:57.282Z,9.70
2018-03-16T10:11:25.554Z,9.70
2018-03-16T10:13:54.582Z,9.70
2018-03-16T10:16:23.278Z,9.60
2018-03-16T10:18:52.301Z,9.60
2018-03-16T10:21:21.707Z,9.60
2018-03-16T10:23:50.013Z,9.60
2018-03-16T10:26:18.274Z,9.70
2018-03-16T10:28:46.534Z,9.70
2018-03-16T10:31:15.970Z,9.70
2018-03-16T10:33:45.003Z,9.70
2018-03-16T10:36:13.273Z,9.60
2018-03-16T10:38:41.570Z,9.60
2018-03-16T10:41:10.604Z,9.70
2018-03-16T10:43:39.626Z,9.60
2018-03-16T10:46:08.690Z,9.70
2018-03-16T10:48:36.954Z,9.80
2018-03-16T10:51:05.986Z,9.80
2018-03-16T10:53:35.237Z,9.80
2018-03-16T10:56:03.494Z,9.80
2018-03-16T10:58:32.526Z,9.80
2018-03-16T11:01:01.573Z,9.80
2018-03-16T11:03:35.602Z,9.80
2018-03-16T11:08:33.791Z,9.80
2018-03-16T11:11:02.364Z,9.80
2018-03-16T11:13:30.631Z,9.70
2018-03-16T11:18:28.431Z,9.70
2018-03-16T11:20:56.690Z,9.60
2018-03-16T11:23:24.955Z,9.50
2018-03-16T11:25:54.770Z,9.50
2018-03-16T11:28:23.034Z,9.60
2018-03-16T11:30:51.298Z,9.60
2018-03-16T11:33:21.095Z,9.60
2018-03-16T11:35:49.353Z,9.60
2018-03-16T11:38:17.614Z,9.60
2018-03-16T11:40:45.910Z,9.60
2018-03-16T11:43:14.226Z,9.60
2018-03-16T11:45:42.460Z,9.60
2018-03-16T11:48:10.751Z,9.60
2018-03-16T11:50:39.779Z,9.60
2018-03-16T11:53:08.062Z,9.60
2018-03-16T11:55:37.114Z,9.60
2018-03-16T11:58:06.142Z,9.60
2018-03-16T12:00:34.436Z,9.60
2018-03-16T12:03:02.723Z,9.60
2018-03-16T12:05:30.987Z,9.60
2018-03-16T12:07:59.298Z,9.60
2018-03-16T12:10:28.692Z,9.70
2018-03-16T12:12:56.959Z,9.60
2018-03-16T12:15:25.586Z,9.60
2018-03-16T12:17:53.851Z,9.60
2018-03-16T12:20:22.879Z,9.60
2018-03-16T12:22:51.566Z,9.60
2018-03-16T12:25:19.826Z,9.60
2018-03-16T12:27:48.090Z,9.60
2018-03-16T12:32:46.650Z,9.60
2018-03-16T12:35:15.678Z,9.60
2018-03-16T12:37:44.088Z,9.60
2018-03-16T12:40:12.347Z,9.70
2018-03-16T12:42:40.620Z,9.80
2018-03-16T12:45:08.920Z,9.80
2018-03-16T12:47:38.314Z,9.70
2018-03-16T12:50:06.582Z,9.30
2018-03-16T12:52:34.902Z,9.80
2018-03-16T12:55:04.674Z,9.80
2018-03-16T13:00:03.642Z,9.80
2018-03-16T13:02:31.906Z,9.90
2018-03-16T13:05:00.939Z,9.90
2018-03-16T13:07:29.242Z,10.00
2018-03-16T13:09:57.506Z,9.90
2018-03-16T13:12:25.780Z,9.90
2018-03-16T13:14:54.082Z,10.00
2018-03-16T13:17:22.350Z,10.00
2018-03-16T13:19:50.633Z,10.00
2018-03-16T13:22:19.700Z,10.00
2018-03-16T13:24:47.963Z,9.90
2018-03-16T13:27:16.239Z,10.00
2018-03-16T13:29:45.306Z,9.90
2018-03-16T13:32:14.398Z,9.90
2018-03-16T13:34:42.601Z,9.90
2018-03-16T13:37:11.659Z,9.80
2018-03-16T13:39:40.695Z,9.70
2018-03-16T13:42:08.962Z,9.70
2018-03-16T13:44:37.661Z,9.70
2018-03-16T13:47:06.695Z,9.60
2018-03-16T13:49:34.959Z,9.50
2018-03-16T13:52:03.263Z,9.50
2018-03-16T13:54:31.530Z,9.50
2018-03-16T13:56:59.796Z,9.40
2018-03-16T13:59:28.091Z,9.40
2018-03-16T14:01:56.379Z,9.40
2018-03-16T14:04:25.783Z,9.30
2018-03-16T14:06:54.088Z,9.30
2018-03-16T14:09:22.343Z,9.20
2018-03-16T14:11:50.608Z,9.20
2018-03-16T14:14:20.043Z,9.10
2018-03-16T14:16:49.067Z,9.00
2018-03-16T14:19:18.462Z,9.00
2018-03-16T14:21:47.838Z,8.90
2018-03-16T14:24:16.491Z,8.90
2018-03-16T14:26:44.755Z,8.90
2018-03-16T14:29:13.062Z,8.90
2018-03-16T14:31:41.327Z,8.80
2018-03-16T14:34:11.126Z,8.70
2018-03-16T14:36:39.410Z,8.70
2018-03-16T14:39:09.594Z,8.60
2018-03-16T14:41:37.854Z,8.60
2018-03-16T14:44:07.204Z,8.60
2018-03-16T14:46:35.458Z,8.60
2018-03-16T14:49:04.498Z,8.60
2018-03-16T14:51:32.787Z,8.50
2018-03-16T14:54:01.810Z,8.50
2018-03-16T14:56:30.875Z,8.50
2018-03-16T14:59:02.771Z,8.50
2018-03-16T15:01:31.034Z,8.50
2018-03-16T15:03:59.294Z,8.50
2018-03-16T15:06:27.594Z,8.50
2018-03-16T15:08:57.362Z,8.40
2018-03-16T15:11:25.636Z,8.40
2018-03-16T15:13:53.944Z,8.40
2018-03-16T15:16:23.691Z,8.30
2018-03-16T15:18:53.432Z,8.40
2018-03-16T15:21:22.450Z,8.30
2018-03-16T15:23:51.109Z,8.30
2018-03-16T15:26:20.187Z,8.30
2018-03-16T15:31:17.864Z,8.20
2018-03-16T15:33:46.126Z,8.20
2018-03-16T15:36:14.367Z,8.20
2018-03-16T15:38:42.629Z,8.20
2018-03-16T15:41:10.860Z,8.30
2018-03-16T15:43:39.092Z,8.20
2018-03-16T15:46:07.363Z,8.20
2018-03-16T15:48:35.597Z,8.10
2018-03-16T15:51:04.593Z,8.10
2018-03-16T15:53:33.040Z,8.10
2018-03-16T15:56:02.778Z,8.00
2018-03-16T15:58:31.021Z,7.90
2018-03-16T16:00:59.285Z,7.80
2018-03-16T16:03:27.518Z,7.70
2018-03-16T16:05:55.752Z,7.70
2018-03-16T16:08:24.004Z,7.70
2018-03-16T16:10:52.236Z,7.70
2018-03-16T16:13:20.492Z,7.60
2018-03-16T16:15:48.752Z,7.60
2018-03-16T16:18:16.976Z,7.60
2018-03-16T16:20:45.642Z,7.60
2018-03-16T16:23:13.900Z,7.60
2018-03-16T16:25:42.138Z,7.70
2018-03-16T16:28:10.405Z,7.80
2018-03-16T16:30:40.160Z,7.70
2018-03-16T16:33:08.389Z,7.70
2018-03-16T16:35:36.660Z,7.70
2018-03-16T16:38:04.900Z,7.70
2018-03-16T16:40:33.155Z,7.70
2018-03-16T16:43:01.419Z,7.80
2018-03-16T16:45:29.714Z,7.70
2018-03-16T16:47:57.893Z,7.70
2018-03-16T16:50:26.152Z,7.60
2018-03-16T16:52:54.394Z,7.60
2018-03-16T16:55:23.472Z,7.60
2018-03-16T16:57:53.244Z,7.60
2018-03-16T17:00:21.521Z,7.50
2018-03-16T17:02:49.732Z,7.40
2018-03-16T17:05:18.005Z,7.30
2018-03-16T17:07:46.237Z,7.30
2018-03-16T17:10:14.502Z,7.20
2018-03-16T17:12:42.737Z,7.10
2018-03-16T17:15:12.474Z,7.00
2018-03-16T17:17:42.250Z,6.90
2018-03-16T17:20:10.489Z,6.90
2018-03-16T17:22:38.728Z,6.90
2018-03-16T17:25:07.389Z,6.90
2018-03-16T17:27:35.621Z,6.80
2018-03-16T17:30:04.988Z,6.90
2018-03-16T17:32:33.265Z,6.80
2018-03-16T17:35:02.279Z,6.70
2018-03-16T17:37:31.277Z,6.70
2018-03-16T17:39:59.545Z,6.70
2018-03-16T17:42:27.782Z,6.70
2018-03-16T17:44:56.408Z,6.70
2018-03-16T17:47:25.444Z,6.60
2018-03-16T17:49:53.707Z,6.70
2018-03-16T17:52:21.912Z,6.70
2018-03-16T17:54:50.179Z,6.70
2018-03-16T17:57:18.408Z,6.60
2018-03-16T17:59:46.645Z,6.60
2018-03-16T18:02:15.695Z,6.50
2018-03-16T18:04:45.065Z,6.30
2018-03-16T18:07:13.295Z,6.30
2018-03-16T18:09:41.564Z,6.20
2018-03-16T18:12:09.789Z,6.20
2018-03-16T18:14:38.066Z,6.20
2018-03-16T18:17:07.758Z,6.10
2018-03-16T18:19:37.121Z,6.10
2018-03-16T18:22:06.121Z,6.10
2018-03-16T18:24:34.384Z,6.00
2018-03-16T18:27:02.641Z,6.00
2018-03-16T18:29:32.017Z,5.90
2018-03-16T18:32:02.321Z,5.90
2018-03-16T18:34:30.593Z,5.90
2018-03-16T18:39:28.344Z,5.90
2018-03-16T18:41:56.618Z,5.90
2018-03-16T18:44:26.410Z,5.90
2018-03-16T18:46:54.665Z,5.90
2018-03-16T18:49:22.897Z,5.90
2018-03-16T18:51:51.173Z,5.80
2018-03-16T18:54:19.428Z,5.70
2018-03-16T18:56:47.660Z,5.70
2018-03-16T19:01:45.415Z,5.70
2018-03-16T19:04:13.645Z,5.70
2018-03-16T19:06:41.934Z,5.70
2018-03-16T19:09:10.193Z,5.70
2018-03-16T19:11:38.442Z,5.70
2018-03-16T19:14:06.760Z,5.60
2018-03-16T19:16:35.753Z,5.60
2018-03-16T19:19:03.988Z,5.60
2018-03-16T19:21:33.770Z,5.60
2018-03-16T19:24:02.045Z,5.60
2018-03-16T19:26:30.300Z,5.60
2018-03-16T19:28:58.561Z,5.50
2018-03-16T19:31:26.853Z,5.50
2018-03-16T19:33:55.081Z,5.60
2018-03-16T19:36:24.476Z,5.60
2018-03-16T19:38:52.736Z,5.50
2018-03-16T19:41:20.980Z,5.50
2018-03-16T19:43:49.246Z,5.40
2018-03-16T19:46:17.513Z,5.50
2018-03-16T19:48:45.786Z,5.50
2018-03-16T19:51:13.977Z,5.40
2018-03-16T19:53:43.388Z,5.40
2018-03-16T19:56:11.634Z,5.40
2018-03-16T19:58:39.877Z,5.30
2018-03-16T20:01:08.913Z,5.30
2018-03-16T20:03:38.288Z,5.30
2018-03-16T20:06:06.517Z,5.30
2018-03-16T20:11:04.257Z,5.30
2018-03-16T20:13:33.260Z,5.30
2018-03-16T20:16:01.542Z,5.30
2018-03-16T20:18:30.544Z,5.30
2018-03-16T20:20:58.793Z,5.30
2018-03-16T20:23:27.465Z,5.30
2018-03-16T20:25:55.705Z,5.20
2018-03-16T20:28:23.941Z,5.20
2018-03-16T20:30:56.061Z,5.10
2018-03-16T20:33:24.306Z,5.00
2018-03-16T20:35:53.306Z,5.00
2018-03-16T20:38:21.585Z,4.90
2018-03-16T20:40:49.833Z,4.90
2018-03-16T20:43:18.064Z,4.90
2018-03-16T20:45:48.022Z,4.90
2018-03-16T20:48:16.266Z,4.80
2018-03-16T20:50:44.500Z,4.80
2018-03-16T20:53:12.788Z,4.80
2018-03-16T20:55:41.041Z,4.70
2018-03-16T20:58:09.277Z,4.80
2018-03-16T21:00:38.325Z,4.80
2018-03-16T21:03:06.561Z,4.80
2018-03-16T21:05:34.798Z,4.80
2018-03-16T21:10:32.933Z,4.80
2018-03-16T21:13:01.173Z,4.80
2018-03-16T21:15:29.461Z,4.80
2018-03-16T21:17:57.706Z,4.80
2018-03-16T21:22:55.481Z,4.80
2018-03-16T21:25:23.721Z,4.80
2018-03-16T21:27:51.961Z,4.80
2018-03-16T21:30:20.249Z,4.80
2018-03-16T21:35:17.961Z,4.80
2018-03-16T21:37:46.243Z,4.80
2018-03-16T21:40:14.472Z,4.80
2018-03-16T21:42:42.712Z,4.80
2018-03-16T21:45:10.988Z,4.90
2018-03-16T21:47:40.728Z,4.90
2018-03-16T21:50:09.732Z,4.80
2018-03-16T21:52:38.769Z,4.80
2018-03-16T21:57:37.645Z,4.70
2018-03-16T22:02:35.422Z,4.70
2018-03-16T22:05:03.660Z,4.70
2018-03-16T22:10:01.426Z,4.60
2018-03-16T22:12:30.070Z,4.60
2018-03-16T22:14:58.375Z,4.70
2018-03-16T22:17:26.672Z,4.70
2018-03-16T22:19:54.957Z,4.70
2018-03-16T22:22:23.496Z,4.70
2018-03-16T22:24:52.101Z,4.60
2018-03-16T22:27:20.373Z,4.60
2018-03-16T22:29:49.013Z,4.50
2018-03-16T22:32:17.253Z,4.50
2018-03-16T22:34:45.489Z,4.50
2018-03-16T22:37:14.025Z,4.60
2018-03-16T22:39:42.662Z,4.50
2018-03-16T22:42:10.892Z,4.50
2018-03-16T22:44:40.225Z,4.50
2018-03-16T22:47:09.275Z,4.50
2018-03-16T22:49:37.465Z,4.50
2018-03-16T22:52:09.027Z,4.40
2018-03-16T22:54:37.260Z,4.40
2018-03-16T22:57:05.501Z,4.40
2018-03-16T22:59:33.777Z,4.40
2018-03-16T23:02:02.020Z,4.40
2018-03-16T23:07:00.161Z,4.30
2018-03-16T23:09:29.167Z,4.30
2018-03-16T23:11:58.174Z,4.40
2018-03-16T23:14:26.475Z,4.30
2018-03-16T23:16:54.708Z,4.30
2018-03-16T23:19:22.940Z,4.30
2018-03-16T23:21:51.214Z,4.30
2018-03-16T23:24:19.454Z,4.30
2018-03-16T23:26:47.684Z,4.30
2018-03-16T23:29:17.097Z,4.20
2018-03-16T23:31:45.328Z,4.20
2018-03-16T23:34:14.337Z,4.20
2018-03-16T23:36:43.888Z,4.10
2018-03-16T23:39:12.523Z,4.10
2018-03-16T23:41:40.756Z,4.00
2018-03-16T23:44:10.534Z,4.00
2018-03-16T23:46:39.536Z,4.00
2018-03-16T23:49:08.528Z,4.00
2018-03-16T23:51:36.837Z,4.00
2018-03-16T23:54:05.077Z,4.00
2018-03-16T23:56:34.072Z,4.00
2018-03-16T23:59:02.340Z,4.00
